createdAt,value
2023-02-07T00:01:25.654Z,103276.56
2023-02-07T00:03:56.539Z,103273.28
2023-02-07T00:06:26.341Z,103275.56
2023-02-07T00:08:54.627Z,103288.25
2023-02-07T00:11:24.356Z,103271.44
2023-02-07T00:13:54.949Z,103274.00
2023-02-07T00:16:25.451Z,103264.31
2023-02-07T00:18:59.730Z,103281.16
2023-02-07T00:21:29.180Z,103285.53
2023-02-07T00:23:57.733Z,103293.34
2023-02-07T00:26:27.527Z,103285.31
2023-02-07T00:28:56.906Z,103283.50
2023-02-07T00:31:27.412Z,103299.59
2023-02-07T00:33:59.655Z,103314.59
2023-02-07T00:36:29.590Z,103305.84
2023-02-07T00:38:58.213Z,103304.31
2023-02-07T00:41:26.531Z,103305.06
2023-02-07T00:43:55.091Z,103295.16
2023-02-07T00:46:24.474Z,103290.88
2023-02-07T00:48:54.533Z,103285.56
2023-02-07T00:51:25.703Z,103283.84
2023-02-07T00:53:54.962Z,103293.56
2023-02-07T00:56:23.448Z,103269.75
2023-02-07T00:58:51.638Z,103275.03
2023-02-07T01:01:20.290Z,103282.25
2023-02-07T01:03:48.452Z,103271.50
2023-02-07T01:06:16.439Z,103288.22
2023-02-07T01:08:46.390Z,103284.72
2023-02-07T01:11:18.802Z,103273.16
2023-02-07T01:13:47.008Z,103288.94
2023-02-07T01:16:20.350Z,103286.38
2023-02-07T01:18:48.722Z,103275.13
2023-02-07T01:21:17.811Z,103287.31
2023-02-07T01:23:47.494Z,103290.97
2023-02-07T01:26:15.632Z,103285.72
2023-02-07T01:28:43.553Z,103283.75
2023-02-07T01:31:14.635Z,103290.69
2023-02-07T01:33:42.689Z,103294.88
2023-02-07T01:36:12.951Z,103290.69
2023-02-07T01:38:41.050Z,103278.19
2023-02-07T01:41:11.536Z,103286.38
2023-02-07T01:43:55.186Z,103295.88
2023-02-07T01:46:23.214Z,103285.34
2023-02-07T01:48:53.144Z,103279.19
2023-02-07T01:51:21.539Z,103287.66
2023-02-07T01:53:50.161Z,103288.78
2023-02-07T01:56:30.924Z,103290.41
2023-02-07T01:59:02.251Z,103294.09
2023-02-07T02:01:30.183Z,103300.25
2023-02-07T02:03:58.511Z,103299.25
2023-02-07T02:06:29.701Z,103293.63
2023-02-07T02:08:59.553Z,103306.81
2023-02-07T02:11:51.625Z,103298.94
2023-02-07T02:14:36.522Z,103296.84
2023-02-07T02:17:11.064Z,103298.03
2023-02-07T02:20:32.888Z,103307.41
2023-02-07T02:23:11.009Z,103308.84
2023-02-07T02:26:23.195Z,103307.28
2023-02-07T02:29:38.756Z,103310.25
2023-02-07T02:32:44.072Z,103309.22
2023-02-07T02:35:18.288Z,103315.31
2023-02-07T02:37:54.164Z,103317.16
2023-02-07T02:40:28.565Z,103317.97
2023-02-07T02:43:02.084Z,103301.09
2023-02-07T02:45:34.545Z,103312.53
2023-02-07T02:48:05.603Z,103310.00
2023-02-07T02:50:36.081Z,103315.03
2023-02-07T02:53:04.068Z,103310.56
2023-02-07T02:55:53.864Z,103305.09
2023-02-07T02:58:29.419Z,103300.81
2023-02-07T03:01:14.467Z,103303.31
2023-02-07T03:03:59.101Z,103289.91
2023-02-07T03:06:53.107Z,103295.25
2023-02-07T03:09:33.078Z,103296.16
2023-02-07T03:12:10.472Z,103300.50
2023-02-07T03:14:52.876Z,103300.72
2023-02-07T03:17:27.964Z,103296.19
2023-02-07T03:20:01.886Z,103305.84
2023-02-07T03:22:31.887Z,103292.41
2023-02-07T03:25:02.720Z,103298.84
2023-02-07T03:27:34.198Z,103297.06
2023-02-07T03:30:06.476Z,103306.53
2023-02-07T03:32:38.619Z,103308.53
2023-02-07T03:35:09.477Z,103314.59
2023-02-07T03:37:41.958Z,103315.16
2023-02-07T03:40:11.643Z,103319.59
2023-02-07T03:42:43.641Z,103323.19
2023-02-07T03:45:16.146Z,103316.19
2023-02-07T03:47:44.149Z,103319.88
2023-02-07T03:50:12.751Z,103320.50
2023-02-07T03:52:42.203Z,103329.19
2023-02-07T03:55:10.398Z,103328.59
2023-02-07T03:57:38.527Z,103330.41
2023-02-07T04:00:08.004Z,103334.94
2023-02-07T04:02:41.933Z,103336.72
2023-02-07T04:05:10.616Z,103330.38
2023-02-07T04:07:38.780Z,103329.44
2023-02-07T04:10:08.891Z,103333.72
2023-02-07T04:12:36.903Z,103330.22
2023-02-07T04:15:06.440Z,103331.56
2023-02-07T04:17:34.806Z,103323.06
2023-02-07T04:20:02.720Z,103319.63
2023-02-07T04:22:31.522Z,103317.91
2023-02-07T04:24:59.523Z,103314.19
2023-02-07T04:27:28.917Z,103323.72
2023-02-07T04:29:56.934Z,103314.75
2023-02-07T04:32:25.001Z,103315.16
2023-02-07T04:34:53.063Z,103322.16
2023-02-07T04:37:21.194Z,103313.34
2023-02-07T04:39:49.340Z,103304.22
2023-02-07T04:42:17.449Z,103306.75
2023-02-07T04:44:46.912Z,103306.09
2023-02-07T04:47:15.229Z,103293.69
2023-02-07T04:49:43.180Z,103289.25
2023-02-07T04:52:11.082Z,103292.47
2023-02-07T04:54:39.076Z,103293.34
2023-02-07T04:57:07.180Z,103298.84
2023-02-07T04:59:35.078Z,103294.41
2023-02-07T05:02:04.676Z,103307.91
2023-02-07T05:04:33.010Z,103303.31
2023-02-07T05:07:00.957Z,103300.72
2023-02-07T05:09:28.975Z,103300.72
2023-02-07T05:11:56.919Z,103313.28
2023-02-07T05:14:26.176Z,103318.56
2023-02-07T05:16:54.111Z,103317.63
2023-02-07T05:19:23.617Z,103310.88
2023-02-07T05:21:51.672Z,103319.44
2023-02-07T05:24:19.880Z,103331.03
2023-02-07T05:26:47.715Z,103328.41
2023-02-07T05:29:15.667Z,103322.34
2023-02-07T05:32:00.931Z,103324.03
2023-02-07T05:34:30.256Z,103335.97
2023-02-07T05:36:58.284Z,103342.69
2023-02-07T05:39:26.319Z,103345.25
2023-02-07T05:41:54.373Z,103342.59
2023-02-07T05:44:22.326Z,103346.44
2023-02-07T05:46:52.379Z,103351.16
2023-02-07T05:49:20.590Z,103361.78
2023-02-07T05:51:50.044Z,103366.28
2023-02-07T05:54:17.974Z,103363.09
2023-02-07T05:56:46.085Z,103356.94
2023-02-07T05:59:14.104Z,103365.16
2023-02-07T06:01:42.219Z,103385.16
2023-02-07T06:04:10.131Z,103384.50
2023-02-07T06:06:38.175Z,103379.72
2023-02-07T06:09:07.528Z,103382.25
2023-02-07T06:11:35.531Z,103378.00
2023-02-07T06:14:06.956Z,103381.66
2023-02-07T06:16:36.022Z,103372.84
2023-02-07T06:19:04.271Z,103379.06
2023-02-07T06:21:45.760Z,103380.03
2023-02-07T06:24:16.292Z,103387.34
2023-02-07T06:26:46.702Z,103390.50
2023-02-07T06:29:15.682Z,103388.78
2023-02-07T06:31:43.863Z,103390.38
2023-02-07T06:34:11.978Z,103396.25
2023-02-07T06:36:40.089Z,103401.00
2023-02-07T06:39:08.455Z,103404.28
2023-02-07T06:41:37.803Z,103404.34
2023-02-07T06:44:06.336Z,103409.09
2023-02-07T06:46:34.753Z,103411.72
2023-02-07T06:49:02.776Z,103413.94
2023-02-07T06:51:30.776Z,103411.72
2023-02-07T06:53:59.726Z,103417.97
2023-02-07T06:56:27.636Z,103422.06
2023-02-07T06:58:57.029Z,103419.63
2023-02-07T07:01:25.025Z,103419.53
2023-02-07T07:03:53.086Z,103427.94
2023-02-07T07:06:21.189Z,103432.50
2023-02-07T07:08:49.942Z,103438.75
2023-02-07T07:11:17.910Z,103433.84
2023-02-07T07:13:45.950Z,103432.81
2023-02-07T07:16:15.659Z,103437.38
2023-02-07T07:18:43.970Z,103441.38
2023-02-07T07:21:12.701Z,103437.94
2023-02-07T07:23:40.803Z,103448.66
2023-02-07T07:26:08.794Z,103455.38
2023-02-07T07:28:36.764Z,103451.25
2023-02-07T07:31:05.931Z,103463.59
2023-02-07T07:33:37.340Z,103457.59
2023-02-07T07:36:06.753Z,103465.22
2023-02-07T07:41:05.408Z,103465.22
2023-02-07T07:43:33.329Z,103467.94
2023-02-07T07:46:01.402Z,103478.38
2023-02-07T07:48:29.990Z,103479.47
2023-02-07T07:50:59.441Z,103483.22
2023-02-07T07:53:27.558Z,103486.81
2023-02-07T07:55:57.533Z,103485.50
2023-02-07T07:58:26.680Z,103492.72
2023-02-07T08:00:55.018Z,103500.06
2023-02-07T08:03:23.780Z,103504.94
2023-02-07T08:05:52.362Z,103511.00
2023-02-07T08:08:22.180Z,103513.88
2023-02-07T08:10:50.338Z,103526.22
2023-02-07T08:13:19.949Z,103544.88
2023-02-07T08:15:47.877Z,103562.03
2023-02-07T08:18:15.995Z,103573.13
2023-02-07T08:20:44.004Z,103587.88
2023-02-07T08:23:12.976Z,103588.94
2023-02-07T08:25:42.675Z,103593.28
2023-02-07T08:28:11.522Z,103601.63
2023-02-07T08:30:39.873Z,103607.88
2023-02-07T08:33:08.161Z,103616.78
2023-02-07T08:35:37.460Z,103621.41
2023-02-07T08:38:05.854Z,103645.59
2023-02-07T08:40:34.114Z,103651.06
2023-02-07T08:43:06.817Z,103662.97
2023-02-07T08:45:35.220Z,103682.13
2023-02-07T08:48:03.308Z,103694.88
2023-02-07T08:50:31.363Z,103696.72
2023-02-07T08:52:59.728Z,103704.81
2023-02-07T08:55:27.805Z,103728.59
2023-02-07T08:57:55.893Z,103734.78
2023-02-07T09:00:25.667Z,103734.78
2023-02-07T09:02:53.870Z,103739.06
2023-02-07T09:05:21.966Z,103741.38
2023-02-07T09:07:50.034Z,103739.28
2023-02-07T09:10:18.103Z,103744.53
2023-02-07T09:12:46.193Z,103744.38
2023-02-07T09:15:14.306Z,103744.53
2023-02-07T09:17:43.755Z,103738.66
2023-02-07T09:20:12.928Z,103735.19
2023-02-07T09:22:54.944Z,103734.59
2023-02-07T09:25:22.883Z,103734.97
2023-02-07T09:27:51.456Z,103738.03
2023-02-07T09:30:20.338Z,103751.50
2023-02-07T09:32:49.777Z,103741.56
2023-02-07T09:35:17.937Z,103731.25
2023-02-07T09:37:49.638Z,103742.84
2023-02-07T09:40:19.675Z,103745.38
2023-02-07T09:42:59.335Z,103729.81
2023-02-07T09:45:33.268Z,103746.16
2023-02-07T09:48:10.699Z,103747.81
2023-02-07T09:50:47.059Z,103755.19
2023-02-07T09:53:18.220Z,103756.94
2023-02-07T09:55:50.796Z,103759.56
2023-02-07T09:58:21.925Z,103777.53
2023-02-07T10:00:59.511Z,103775.44
2023-02-07T10:03:29.818Z,103783.75
2023-02-07T10:06:09.315Z,103783.88
2023-02-07T10:08:46.529Z,103784.50
2023-02-07T10:11:21.681Z,103776.81
2023-02-07T10:14:05.806Z,103778.75
2023-02-07T10:16:47.526Z,103785.47
2023-02-07T10:19:30.506Z,103781.94
2023-02-07T10:22:13.263Z,103786.44
2023-02-07T10:25:00.384Z,103790.97
2023-02-07T10:27:32.257Z,103792.19
2023-02-07T10:30:11.378Z,103786.34
2023-02-07T10:32:42.213Z,103798.25
2023-02-07T10:35:20.756Z,103799.81
2023-02-07T10:37:52.007Z,103792.25
2023-02-07T10:40:25.935Z,103789.72
2023-02-07T10:42:59.412Z,103789.72
2023-02-07T10:45:27.413Z,103796.88
2023-02-07T10:47:57.711Z,103793.84
2023-02-07T10:50:41.702Z,103788.81
2023-02-07T10:53:09.909Z,103793.56
2023-02-07T10:55:44.954Z,103792.16
2023-02-07T10:58:23.266Z,103796.56
2023-02-07T11:00:53.793Z,103795.88
2023-02-07T11:03:23.935Z,103791.44
2023-02-07T11:05:59.881Z,103795.94
2023-02-07T11:08:29.803Z,103788.81
2023-02-07T11:10:59.808Z,103788.75
2023-02-07T11:13:29.874Z,103802.31
2023-02-07T11:16:01.720Z,103803.97
2023-02-07T11:18:45.516Z,103797.81
2023-02-07T11:21:31.534Z,103817.03
2023-02-07T11:24:04.763Z,103809.50
2023-02-07T11:26:34.389Z,103803.31
2023-02-07T11:29:13.889Z,103803.34
2023-02-07T11:31:44.064Z,103803.72
2023-02-07T11:34:35.600Z,103802.72
2023-02-07T11:37:19.325Z,103807.31
2023-02-07T11:39:48.613Z,103800.03
2023-02-07T11:42:20.544Z,103801.53
2023-02-07T11:44:50.884Z,103811.75
2023-02-07T11:47:23.253Z,103800.94
2023-02-07T11:49:54.564Z,103802.81
2023-02-07T11:52:24.125Z,103795.03
2023-02-07T11:54:55.824Z,103799.47
2023-02-07T11:57:25.614Z,103797.41
2023-02-07T12:00:08.118Z,103786.84
2023-02-07T12:02:42.096Z,103790.88
2023-02-07T12:05:17.786Z,103784.16
2023-02-07T12:07:50.746Z,103775.25
2023-02-07T12:10:23.864Z,103776.34
2023-02-07T12:12:57.256Z,103780.19
2023-02-07T12:15:33.176Z,103785.13
2023-02-07T12:18:06.849Z,103787.03
2023-02-07T12:20:38.945Z,103788.03
2023-02-07T12:23:40.872Z,103780.72
2023-02-07T12:26:10.038Z,103787.13
2023-02-07T12:28:45.606Z,103793.16
2023-02-07T12:31:22.000Z,103785.28
2023-02-07T12:33:58.157Z,103785.03
2023-02-07T12:36:30.902Z,103781.50
2023-02-07T12:39:08.246Z,103779.94
2023-02-07T12:41:40.304Z,103764.88
2023-02-07T12:44:20.879Z,103774.75
2023-02-07T12:47:00.419Z,103774.91
2023-02-07T12:49:55.132Z,103769.56
2023-02-07T12:52:37.496Z,103766.94
2023-02-07T12:55:22.599Z,103767.88
2023-02-07T12:57:59.114Z,103770.53
2023-02-07T13:00:32.579Z,103773.25
2023-02-07T13:03:15.073Z,103757.94
2023-02-07T13:06:08.656Z,103763.41
2023-02-07T13:08:47.048Z,103765.19
2023-02-07T13:11:27.280Z,103764.09
2023-02-07T13:14:06.136Z,103766.88
2023-02-07T13:16:43.069Z,103764.19
2023-02-07T13:19:21.151Z,103757.97
2023-02-07T13:21:55.568Z,103760.69
2023-02-07T13:24:28.117Z,103758.91
2023-02-07T13:27:03.639Z,103752.63
2023-02-07T13:29:33.607Z,103749.06
2023-02-07T13:32:04.632Z,103748.16
2023-02-07T13:34:37.311Z,103746.31
2023-02-07T13:37:16.544Z,103748.13
2023-02-07T13:39:55.949Z,103747.13
2023-02-07T13:42:36.093Z,103751.38
2023-02-07T13:45:12.374Z,103750.59
2023-02-07T13:47:56.286Z,103750.56
2023-02-07T13:50:40.435Z,103752.31
2023-02-07T13:53:30.764Z,103744.91
2023-02-07T13:56:04.735Z,103741.41
2023-02-07T13:59:11.292Z,103735.28
2023-02-07T14:01:50.343Z,103745.06
2023-02-07T14:04:19.431Z,103745.38
2023-02-07T14:06:58.637Z,103739.78
2023-02-07T14:09:33.712Z,103741.75
2023-02-07T14:12:04.617Z,103747.88
2023-02-07T14:14:35.861Z,103742.50
2023-02-07T14:17:05.614Z,103748.84
2023-02-07T14:19:56.840Z,103750.47
2023-02-07T14:22:27.887Z,103745.91
2023-02-07T14:25:21.412Z,103754.09
2023-02-07T14:28:21.367Z,103754.06
2023-02-07T14:31:03.344Z,103757.69
2023-02-07T14:33:35.744Z,103750.56
2023-02-07T14:36:22.290Z,103753.03
2023-02-07T14:39:04.054Z,103744.97
2023-02-07T14:41:34.137Z,103742.31
2023-02-07T14:44:09.528Z,103744.13
2023-02-07T14:46:42.997Z,103738.88
2023-02-07T14:49:19.756Z,103743.31
2023-02-07T14:51:50.840Z,103754.16
2023-02-07T14:54:27.113Z,103742.50
2023-02-07T14:57:06.039Z,103749.63
2023-02-07T14:59:40.097Z,103746.84
2023-02-07T15:02:38.545Z,103747.75
2023-02-07T15:05:26.023Z,103750.53
2023-02-07T15:08:07.763Z,103746.09
2023-02-07T15:10:39.323Z,103747.03
2023-02-07T15:13:19.327Z,103740.75
2023-02-07T15:15:52.618Z,103737.19
2023-02-07T15:18:24.968Z,103739.84
2023-02-07T15:20:57.489Z,103743.41
2023-02-07T15:23:28.582Z,103737.94
2023-02-07T15:25:57.444Z,103745.00
2023-02-07T15:28:28.208Z,103733.66
2023-02-07T15:30:58.797Z,103727.28
2023-02-07T15:33:30.942Z,103733.41
2023-02-07T15:35:58.855Z,103735.28
2023-02-07T15:38:28.613Z,103729.94
2023-02-07T15:40:57.017Z,103728.00
2023-02-07T15:43:28.964Z,103732.47
2023-02-07T15:46:02.982Z,103742.28
2023-02-07T15:48:33.021Z,103733.34
2023-02-07T15:51:04.976Z,103729.78
2023-02-07T15:53:33.490Z,103724.44
2023-02-07T15:56:01.751Z,103732.31
2023-02-07T15:58:34.855Z,103729.66
2023-02-07T16:01:04.380Z,103739.47
2023-02-07T16:03:37.554Z,103746.47
2023-02-07T16:06:12.166Z,103745.56
2023-02-07T16:08:42.536Z,103737.47
2023-02-07T16:11:33.482Z,103735.66
2023-02-07T16:14:05.140Z,103744.53
2023-02-07T16:16:39.507Z,103744.66
2023-02-07T16:19:17.109Z,103748.09
2023-02-07T16:21:47.377Z,103743.44
2023-02-07T16:24:18.092Z,103738.03
2023-02-07T16:26:46.741Z,103745.94
2023-02-07T16:29:17.533Z,103749.41
2023-02-07T16:31:45.982Z,103746.59
2023-02-07T16:34:17.177Z,103745.69
2023-02-07T16:36:49.262Z,103743.78
2023-02-07T16:39:17.347Z,103743.63
2023-02-07T16:41:48.603Z,103747.94
2023-02-07T16:44:21.194Z,103748.75
2023-02-07T16:46:49.148Z,103749.56
2023-02-07T16:49:21.108Z,103747.69
2023-02-07T16:51:49.767Z,103748.31
2023-02-07T16:54:18.061Z,103759.81
2023-02-07T16:56:48.948Z,103767.75
2023-02-07T16:59:19.239Z,103762.25
2023-02-07T17:01:47.432Z,103765.78
2023-02-07T17:04:15.920Z,103758.56
2023-02-07T17:06:46.306Z,103765.50
2023-02-07T17:09:16.045Z,103764.56
2023-02-07T17:11:44.190Z,103759.09
2023-02-07T17:14:12.456Z,103753.69
2023-02-07T17:16:40.701Z,103763.44
2023-02-07T17:19:13.396Z,103762.31
2023-02-07T17:21:42.920Z,103763.25
2023-02-07T17:24:13.156Z,103765.00
2023-02-07T17:26:44.029Z,103776.38
2023-02-07T17:29:13.989Z,103777.41
2023-02-07T17:31:42.720Z,103777.09
2023-02-07T17:34:11.047Z,103773.56
2023-02-07T17:36:41.947Z,103770.75
2023-02-07T17:39:13.933Z,103767.09
2023-02-07T17:41:41.863Z,103768.88
2023-02-07T17:44:10.012Z,103775.97
2023-02-07T17:46:37.986Z,103773.22
2023-02-07T17:49:06.292Z,103763.38
2023-02-07T17:51:34.283Z,103767.66
2023-02-07T17:54:02.285Z,103762.41
2023-02-07T17:56:33.823Z,103764.88
2023-02-07T17:59:04.599Z,103757.50
2023-02-07T18:01:33.899Z,103755.03
2023-02-07T18:04:02.664Z,103753.16
2023-02-07T18:06:31.969Z,103753.31
2023-02-07T18:09:00.153Z,103758.72
2023-02-07T18:11:29.009Z,103758.22
2023-02-07T18:13:58.633Z,103749.44
2023-02-07T18:16:27.835Z,103755.66
2023-02-07T18:18:58.143Z,103749.44
2023-02-07T18:21:27.753Z,103745.91
2023-02-07T18:23:56.324Z,103733.34
2023-02-07T18:26:24.397Z,103732.31
2023-02-07T18:28:52.301Z,103742.94
2023-02-07T18:31:24.191Z,103733.97
2023-02-07T18:33:53.886Z,103739.84
2023-02-07T18:36:23.936Z,103734.84
2023-02-07T18:38:52.037Z,103731.03
2023-02-07T18:41:23.439Z,103725.69
2023-02-07T18:43:51.983Z,103733.47
2023-02-07T18:46:22.634Z,103728.03
2023-02-07T18:48:55.470Z,103725.16
2023-02-07T18:51:24.405Z,103732.56
2023-02-07T18:53:54.874Z,103720.59
2023-02-07T18:56:26.201Z,103720.50
2023-02-07T18:58:56.768Z,103722.69
2023-02-07T19:01:28.832Z,103721.63
2023-02-07T19:03:58.520Z,103720.59
2023-02-07T19:06:29.062Z,103710.88
2023-02-07T19:08:57.340Z,103715.31
2023-02-07T19:11:25.625Z,103708.81
2023-02-07T19:13:54.883Z,103715.88
2023-02-07T19:16:24.419Z,103709.28
2023-02-07T19:18:54.047Z,103720.38
2023-02-07T19:21:27.147Z,103726.84
2023-02-07T19:23:55.630Z,103723.22
2023-02-07T19:26:24.658Z,103726.13
2023-02-07T19:28:52.920Z,103732.06
2023-02-07T19:31:21.124Z,103732.28
2023-02-07T19:33:50.806Z,103733.00
2023-02-07T19:36:23.156Z,103729.88
2023-02-07T19:38:53.756Z,103736.56
2023-02-07T19:41:22.021Z,103734.81
2023-02-07T19:43:50.008Z,103727.09
2023-02-07T19:46:18.906Z,103726.50
2023-02-07T19:48:47.324Z,103728.81
2023-02-07T19:51:17.899Z,103724.91
2023-02-07T19:53:49.956Z,103725.72
2023-02-07T19:56:19.399Z,103714.91
2023-02-07T19:58:49.754Z,103712.16
2023-02-07T20:01:18.389Z,103699.53
2023-02-07T20:03:50.945Z,103701.06
2023-02-07T20:06:22.506Z,103699.31
2023-02-07T20:08:52.337Z,103696.28
2023-02-07T20:11:21.938Z,103693.56
2023-02-07T20:13:52.718Z,103686.84
2023-02-07T20:16:22.862Z,103690.16
2023-02-07T20:18:52.185Z,103696.19
2023-02-07T20:21:22.541Z,103688.28
2023-02-07T20:23:53.011Z,103693.59
2023-02-07T20:26:23.793Z,103689.84
2023-02-07T20:28:52.398Z,103698.84
2023-02-07T20:31:22.412Z,103692.66
2023-02-07T20:33:51.050Z,103696.75
2023-02-07T20:36:20.637Z,103691.38
2023-02-07T20:38:49.135Z,103692.97
2023-02-07T20:41:30.022Z,103696.59
2023-02-07T20:43:59.512Z,103703.22
2023-02-07T20:46:28.971Z,103699.69
2023-02-07T20:48:58.494Z,103692.34
2023-02-07T20:51:27.033Z,103701.25
2023-02-07T20:53:57.265Z,103699.25
2023-02-07T20:56:28.176Z,103699.50
2023-02-07T20:58:57.966Z,103695.94
2023-02-07T21:01:27.877Z,103702.22
2023-02-07T21:03:57.808Z,103705.19
2023-02-07T21:06:26.035Z,103705.06
2023-02-07T21:09:00.234Z,103704.16
2023-02-07T21:11:33.693Z,103703.16
2023-02-07T21:14:01.832Z,103710.13
2023-02-07T21:16:30.975Z,103703.56
2023-02-07T21:18:59.104Z,103703.56
2023-02-07T21:21:27.698Z,103707.16
2023-02-07T21:23:56.023Z,103708.81
2023-02-07T21:26:23.923Z,103713.16
2023-02-07T21:28:53.702Z,103703.47
2023-02-07T21:31:23.011Z,103708.53
2023-02-07T21:33:51.303Z,103703.31
2023-02-07T21:36:21.160Z,103698.16
2023-02-07T21:38:50.300Z,103702.31
2023-02-07T21:41:20.404Z,103706.31
2023-02-07T21:43:48.535Z,103706.16
2023-02-07T21:46:21.726Z,103709.13
2023-02-07T21:48:51.395Z,103704.75
2023-02-07T21:51:21.785Z,103715.25
2023-02-07T21:53:51.353Z,103720.41
2023-02-07T21:56:21.731Z,103718.78
2023-02-07T21:58:54.601Z,103722.28
2023-02-07T22:01:24.970Z,103720.56
2023-02-07T22:03:55.298Z,103728.47
2023-02-07T22:06:26.252Z,103733.03
2023-02-07T22:08:58.053Z,103730.22
2023-02-07T22:11:28.209Z,103728.31
2023-02-07T22:13:56.830Z,103721.16
2023-02-07T22:16:28.412Z,103719.22
2023-02-07T22:18:58.403Z,103715.50
2023-02-07T22:21:27.872Z,103709.06
2023-02-07T22:23:57.028Z,103706.44
2023-02-07T22:26:25.880Z,103712.06
2023-02-07T22:28:53.899Z,103708.53
2023-02-07T22:31:24.002Z,103705.69
2023-02-07T22:33:56.736Z,103715.50
2023-02-07T22:36:27.497Z,103708.91
2023-02-07T22:38:56.116Z,103707.22
2023-02-07T22:41:24.096Z,103709.09
2023-02-07T22:43:52.273Z,103713.94
2023-02-07T22:46:21.950Z,103714.53
2023-02-07T22:48:49.985Z,103715.22
2023-02-07T22:51:23.127Z,103709.50
2023-02-07T22:53:53.646Z,103712.44
2023-02-07T22:56:21.845Z,103710.63
2023-02-07T22:58:49.899Z,103717.25
2023-02-07T23:01:22.654Z,103719.03
2023-02-07T23:03:51.322Z,103722.66
2023-02-07T23:06:21.541Z,103727.69
2023-02-07T23:08:50.678Z,103731.09
2023-02-07T23:11:20.021Z,103741.94
2023-02-07T23:13:47.954Z,103739.88
2023-02-07T23:16:17.637Z,103733.03
2023-02-07T23:18:46.759Z,103741.59
2023-02-07T23:21:17.163Z,103740.88
2023-02-07T23:23:47.112Z,103740.00
2023-02-07T23:26:17.205Z,103749.56
2023-02-07T23:28:45.847Z,103739.56
2023-02-07T23:31:15.909Z,103739.69
2023-02-07T23:33:44.657Z,103742.66
2023-02-07T23:36:14.904Z,103745.31
2023-02-07T23:38:46.451Z,103745.84
2023-02-07T23:41:14.452Z,103741.19
2023-02-07T23:43:42.704Z,103742.91
2023-02-07T23:46:11.321Z,103739.38
2023-02-07T23:48:39.197Z,103738.78
2023-02-07T23:51:08.003Z,103740.88
2023-02-07T23:53:36.182Z,103731.84
2023-02-07T23:56:06.709Z,103739.16
2023-02-07T23:58:34.714Z,103740.66
